sensor_id;sensor_type;location;lat;lon;timestamp;pressure;altitude;pressure_sealevel;temperature;humidity
44481;BME280;30184;42.018;23.670;2024-01-25T00:00:50;91884.38;;;0.08;95.52
44481;BME280;30184;42.018;23.670;2024-01-25T00:03:20;91796.84;;;-0.32;95.19
44481;BME280;30184;42.018;23.670;2024-01-25T00:05:49;91536.13;;;-1.93;94.91
44481;BME280;30184;42.018;23.670;2024-01-25T00:08:22;91769.31;;;-1.24;95.19
44481;BME280;30184;42.018;23.670;2024-01-25T00:10:52;91859.28;;;0.13;95.04
44481;BME280;30184;42.018;23.670;2024-01-25T00:13:22;91654.63;;;-1.96;94.71
44481;BME280;30184;42.018;23.670;2024-01-25T00:15:52;91930.31;;;0.21;94.61
44481;BME280;30184;42.018;23.670;2024-01-25T00:18:22;91732.97;;;-1.55;94.31
44481;BME280;30184;42.018;23.670;2024-01-25T00:20:52;91529.91;;;-2.23;94.55
44481;BME280;30184;42.018;23.670;2024-01-25T00:23:23;91717.75;;;-0.70;94.90
44481;BME280;30184;42.018;23.670;2024-01-25T00:25:53;91687.16;;;-1.83;94.85
44481;BME280;30184;42.018;23.670;2024-01-25T00:28:26;91897.69;;;0.31;94.73
44481;BME280;30184;42.018;23.670;2024-01-25T00:30:57;91806.13;;;-0.45;94.49
44481;BME280;30184;42.018;23.670;2024-01-25T00:33:26;91925.81;;;0.25;94.03
44481;BME280;30184;42.018;23.670;2024-01-25T00:35:57;91976.09;;;0.23;93.86
44481;BME280;30184;42.018;23.670;2024-01-25T00:38:29;91738.22;;;-1.58;93.52
44481;BME280;30184;42.018;23.670;2024-01-25T00:40:59;91875.31;;;-0.10;93.37
44481;BME280;30184;42.018;23.670;2024-01-25T00:43:29;91804.31;;;-0.83;93.07
44481;BME280;30184;42.018;23.670;2024-01-25T00:46:00;91674.16;;;-1.27;93.01
44481;BME280;30184;42.018;23.670;2024-01-25T00:48:30;91939.63;;;0.30;93.27
44481;BME280;30184;42.018;23.670;2024-01-25T00:51:00;91616.84;;;-1.85;92.71
44481;BME280;30184;42.018;23.670;2024-01-25T00:53:33;91795.66;;;-1.19;92.70
44481;BME280;30184;42.018;23.670;2024-01-25T00:56:04;91961.31;;;0.29;93.03
44481;BME280;30184;42.018;23.670;2024-01-25T00:58:34;91552.81;;;-2.73;92.42
44481;BME280;30184;42.018;23.670;2024-01-25T01:01:05;92030.31;;;0.27;93.33
44481;BME280;30184;42.018;23.670;2024-01-25T01:03:36;91409.16;;;-2.87;92.75
44481;BME280;30184;42.018;23.670;2024-01-25T01:06:08;91681.75;;;-1.48;92.95
44481;BME280;30184;42.018;23.670;2024-01-25T01:08:41;91792.28;;;-0.31;93.30
44481;BME280;30184;42.018;23.670;2024-01-25T01:11:11;91994.56;;;0.31;93.61
44481;BME280;30184;42.018;23.670;2024-01-25T01:13:43;91577.28;;;-1.68;93.56
44481;BME280;30184;42.018;23.670;2024-01-25T01:16:13;91851.03;;;0.21;93.48
44481;BME280;30184;42.018;23.670;2024-01-25T01:18:42;91868.16;;;0.20;93.51
44481;BME280;30184;42.018;23.670;2024-01-25T01:21:13;91841.63;;;0.31;93.60
44481;BME280;30184;42.018;23.670;2024-01-25T01:23:44;91832.53;;;-0.59;93.46
44481;BME280;30184;42.018;23.670;2024-01-25T01:26:15;91721.72;;;-0.60;93.15
44481;BME280;30184;42.018;23.670;2024-01-25T01:28:45;91553.88;;;-2.39;93.11
44481;BME280;30184;42.018;23.670;2024-01-25T01:31:15;91892.25;;;0.24;93.62
44481;BME280;30184;42.018;23.670;2024-01-25T01:33:46;91827.44;;;-0.45;93.78
44481;BME280;30184;42.018;23.670;2024-01-25T01:36:16;91863.66;;;0.02;94.03
44481;BME280;30184;42.018;23.670;2024-01-25T01:38:48;91902.06;;;0.20;94.10
44481;BME280;30184;42.018;23.670;2024-01-25T01:41:17;91660.88;;;-1.46;94.37
44481;BME280;30184;42.018;23.670;2024-01-25T01:43:47;91858.53;;;-0.11;94.85
44481;BME280;30184;42.018;23.670;2024-01-25T01:46:32;91838.78;;;0.17;95.04
44481;BME280;30184;42.018;23.670;2024-01-25T01:49:05;91680.84;;;-0.94;94.84
44481;BME280;30184;42.018;23.670;2024-01-25T01:51:37;91759.34;;;-0.43;94.81
44481;BME280;30184;42.018;23.670;2024-01-25T01:54:08;91862.38;;;0.15;95.10
44481;BME280;30184;42.018;23.670;2024-01-25T01:56:38;91718.47;;;-1.57;95.19
44481;BME280;30184;42.018;23.670;2024-01-25T01:59:09;91741.63;;;-1.38;95.53
44481;BME280;30184;42.018;23.670;2024-01-25T02:01:41;91803.84;;;-0.47;95.88
44481;BME280;30184;42.018;23.670;2024-01-25T02:04:11;91857.22;;;0.03;96.15
44481;BME280;30184;42.018;23.670;2024-01-25T02:06:42;91631.81;;;-1.97;96.03
44481;BME280;30184;42.018;23.670;2024-01-25T02:09:13;91751.34;;;-0.43;96.26
44481;BME280;30184;42.018;23.670;2024-01-25T02:11:43;91832.69;;;0.20;96.38
44481;BME280;30184;42.018;23.670;2024-01-25T02:14:12;91600.47;;;-2.07;96.19
44481;BME280;30184;42.018;23.670;2024-01-25T02:16:42;91839.63;;;0.24;96.48
44481;BME280;30184;42.018;23.670;2024-01-25T02:19:14;91594.03;;;-1.86;96.23
44481;BME280;30184;42.018;23.670;2024-01-25T02:21:44;91384.91;;;-2.44;95.96
44481;BME280;30184;42.018;23.670;2024-01-25T02:24:16;91822.16;;;0.27;96.51
44481;BME280;30184;42.018;23.670;2024-01-25T02:26:47;91728.56;;;-0.37;96.24
44481;BME280;30184;42.018;23.670;2024-01-25T02:29:16;91821.06;;;0.31;96.30
44481;BME280;30184;42.018;23.670;2024-01-25T02:31:47;91670.22;;;-0.42;96.53
44481;BME280;30184;42.018;23.670;2024-01-25T02:34:16;91394.34;;;-2.23;96.46
44481;BME280;30184;42.018;23.670;2024-01-25T02:36:46;91541.50;;;-2.32;96.43
44481;BME280;30184;42.018;23.670;2024-01-25T02:39:18;91527.13;;;-1.89;96.70
44481;BME280;30184;42.018;23.670;2024-01-25T02:41:48;91728.97;;;-0.84;96.89
44481;BME280;30184;42.018;23.670;2024-01-25T02:44:18;91709.63;;;-0.54;96.95
44481;BME280;30184;42.018;23.670;2024-01-25T02:46:47;91693.53;;;-0.39;97.19
44481;BME280;30184;42.018;23.670;2024-01-25T02:49:17;91803.22;;;0.35;97.41
44481;BME280;30184;42.018;23.670;2024-01-25T02:51:47;91625.19;;;-1.45;97.17
44481;BME280;30184;42.018;23.670;2024-01-25T02:54:19;91409.78;;;-1.83;98.17
44481;BME280;30184;42.018;23.670;2024-01-25T02:56:48;91692.19;;;-0.97;98.27
44481;BME280;30184;42.018;23.670;2024-01-25T02:59:20;91358.59;;;-2.49;98.15
44481;BME280;30184;42.018;23.670;2024-01-25T03:01:49;91503.94;;;-1.42;98.27
44481;BME280;30184;42.018;23.670;2024-01-25T03:04:20;91562.78;;;-1.25;98.18
44481;BME280;30184;42.018;23.670;2024-01-25T03:06:49;91633.00;;;-0.87;98.57
44481;BME280;30184;42.018;23.670;2024-01-25T03:09:21;91555.56;;;-1.47;98.64
44481;BME280;30184;42.018;23.670;2024-01-25T03:11:52;91770.44;;;0.12;98.70
44481;BME280;30184;42.018;23.670;2024-01-25T03:14:24;91467.97;;;-1.82;98.44
44481;BME280;30184;42.018;23.670;2024-01-25T03:17:02;91768.09;;;-0.19;98.67
44481;BME280;30184;42.018;23.670;2024-01-25T03:20:02;91587.59;;;-2.05;98.46
44481;BME280;30184;42.018;23.670;2024-01-25T03:22:32;91743.75;;;-0.63;98.59
44481;BME280;30184;42.018;23.670;2024-01-25T03:25:10;91569.16;;;-1.06;98.51
44481;BME280;30184;42.018;23.670;2024-01-25T03:27:48;91753.81;;;0.22;98.71
44481;BME280;30184;42.018;23.670;2024-01-25T03:30:17;91235.91;;;-3.04;98.18
44481;BME280;30184;42.018;23.670;2024-01-25T03:32:47;91342.91;;;-2.80;98.27
44481;BME280;30184;42.018;23.670;2024-01-25T03:35:18;91688.22;;;-0.84;98.46
44481;BME280;30184;42.018;23.670;2024-01-25T03:38:05;91732.03;;;0.17;98.58
44481;BME280;30184;42.018;23.670;2024-01-25T03:40:58;91332.41;;;-2.50;98.18
44481;BME280;30184;42.018;23.670;2024-01-25T03:43:28;91721.13;;;-0.01;98.78
44481;BME280;30184;42.018;23.670;2024-01-25T03:46:02;91737.63;;;0.08;98.78
44481;BME280;30184;42.018;23.670;2024-01-25T03:48:32;91526.16;;;-2.00;98.59
44481;BME280;30184;42.018;23.670;2024-01-25T03:51:02;91736.84;;;-0.68;98.66
44481;BME280;30184;42.018;23.670;2024-01-25T03:53:33;91548.34;;;-1.24;98.54
44481;BME280;30184;42.018;23.670;2024-01-25T03:56:10;91284.16;;;-3.59;98.31
44481;BME280;30184;42.018;23.670;2024-01-25T03:58:51;91731.66;;;-0.08;99.52
44481;BME280;30184;42.018;23.670;2024-01-25T04:01:21;91737.06;;;-0.54;99.52
44481;BME280;30184;42.018;23.670;2024-01-25T04:03:51;91501.16;;;-1.72;99.40
44481;BME280;30184;42.018;23.670;2024-01-25T04:06:21;91768.56;;;-0.14;99.71
44481;BME280;30184;42.018;23.670;2024-01-25T04:08:51;91683.66;;;-0.61;99.66
44481;BME280;30184;42.018;23.670;2024-01-25T04:11:22;91594.91;;;-1.60;99.97
44481;BME280;30184;42.018;23.670;2024-01-25T04:13:54;91730.03;;;-0.16;99.99
44481;BME280;30184;42.018;23.670;2024-01-25T04:16:24;91390.00;;;-2.32;99.54
44481;BME280;30184;42.018;23.670;2024-01-25T04:18:54;91543.56;;;-1.37;99.97
44481;BME280;30184;42.018;23.670;2024-01-25T04:21:24;91501.75;;;-1.82;99.89
44481;BME280;30184;42.018;23.670;2024-01-25T04:23:54;91285.97;;;-3.25;100.00
44481;BME280;30184;42.018;23.670;2024-01-25T04:26:26;91660.69;;;-0.92;100.00
44481;BME280;30184;42.018;23.670;2024-01-25T04:28:56;91609.56;;;-1.01;100.00
44481;BME280;30184;42.018;23.670;2024-01-25T04:31:26;91653.25;;;-1.47;100.00
44481;BME280;30184;42.018;23.670;2024-01-25T04:33:57;91425.44;;;-2.47;100.00
44481;BME280;30184;42.018;23.670;2024-01-25T04:36:27;91740.38;;;-0.38;100.00
44481;BME280;30184;42.018;23.670;2024-01-25T04:38:57;91768.09;;;-0.42;100.00
44481;BME280;30184;42.018;23.670;2024-01-25T04:41:30;91715.47;;;-0.45;100.00
44481;BME280;30184;42.018;23.670;2024-01-25T04:43:59;91682.13;;;-1.07;100.00
44481;BME280;30184;42.018;23.670;2024-01-25T04:46:29;91479.22;;;-2.34;100.00
44481;BME280;30184;42.018;23.670;2024-01-25T04:49:03;91740.16;;;-0.52;100.00
44481;BME280;30184;42.018;23.670;2024-01-25T04:51:35;91480.19;;;-2.23;100.00
44481;BME280;30184;42.018;23.670;2024-01-25T04:54:05;91711.84;;;-0.60;100.00
44481;BME280;30184;42.018;23.670;2024-01-25T04:56:41;91760.59;;;-0.59;100.00
44481;BME280;30184;42.018;23.670;2024-01-25T04:59:10;91744.25;;;-0.58;100.00
44481;BME280;30184;42.018;23.670;2024-01-25T05:01:40;91678.03;;;-1.01;100.00
44481;BME280;30184;42.018;23.670;2024-01-25T05:04:10;91656.16;;;-1.14;100.00
44481;BME280;30184;42.018;23.670;2024-01-25T05:06:40;91783.50;;;-0.55;100.00
44481;BME280;30184;42.018;23.670;2024-01-25T05:09:09;91815.53;;;-0.51;100.00
44481;BME280;30184;42.018;23.670;2024-01-25T05:11:40;91685.13;;;-1.09;100.00
44481;BME280;30184;42.018;23.670;2024-01-25T05:14:11;91632.19;;;-1.56;100.00
44481;BME280;30184;42.018;23.670;2024-01-25T05:16:41;91741.97;;;-0.79;100.00
44481;BME280;30184;42.018;23.670;2024-01-25T05:19:11;91782.41;;;-0.73;100.00
44481;BME280;30184;42.018;23.670;2024-01-25T05:21:40;91576.63;;;-2.42;100.00
44481;BME280;30184;42.018;23.670;2024-01-25T05:24:10;91786.31;;;-0.48;100.00
44481;BME280;30184;42.018;23.670;2024-01-25T05:26:44;91559.47;;;-1.86;100.00
44481;BME280;30184;42.018;23.670;2024-01-25T05:29:13;91512.88;;;-2.19;100.00
44481;BME280;30184;42.018;23.670;2024-01-25T05:31:44;91529.69;;;-2.53;100.00
44481;BME280;30184;42.018;23.670;2024-01-25T05:34:16;91619.09;;;-1.45;100.00
44481;BME280;30184;42.018;23.670;2024-01-25T05:36:46;91754.53;;;-0.33;100.00
44481;BME280;30184;42.018;23.670;2024-01-25T05:39:16;91699.19;;;-0.66;100.00
44481;BME280;30184;42.018;23.670;2024-01-25T05:41:52;91773.88;;;-0.82;100.00
44481;BME280;30184;42.018;23.670;2024-01-25T05:44:22;91791.38;;;-1.04;100.00
44481;BME280;30184;42.018;23.670;2024-01-25T05:46:53;91639.78;;;-1.35;100.00
44481;BME280;30184;42.018;23.670;2024-01-25T05:49:22;91689.22;;;-0.92;100.00
44481;BME280;30184;42.018;23.670;2024-01-25T05:51:55;91673.69;;;-0.64;100.00
44481;BME280;30184;42.018;23.670;2024-01-25T05:54:25;91581.72;;;-1.30;100.00
44481;BME280;30184;42.018;23.670;2024-01-25T05:56:57;91694.88;;;-0.74;100.00
44481;BME280;30184;42.018;23.670;2024-01-25T05:59:28;91752.75;;;-0.49;100.00
44481;BME280;30184;42.018;23.670;2024-01-25T06:01:58;91908.44;;;-0.11;100.00
44481;BME280;30184;42.018;23.670;2024-01-25T06:04:28;91730.34;;;-0.44;100.00
44481;BME280;30184;42.018;23.670;2024-01-25T06:06:58;91467.72;;;-1.96;100.00
44481;BME280;30184;42.018;23.670;2024-01-25T06:09:28;91474.31;;;-2.32;100.00
44481;BME280;30184;42.018;23.670;2024-01-25T06:11:59;91821.72;;;-0.02;100.00
44481;BME280;30184;42.018;23.670;2024-01-25T06:14:29;91772.75;;;-0.13;100.00
44481;BME280;30184;42.018;23.670;2024-01-25T06:16:59;91495.38;;;-2.43;100.00
44481;BME280;30184;42.018;23.670;2024-01-25T06:19:29;91687.22;;;-0.76;100.00
44481;BME280;30184;42.018;23.670;2024-01-25T06:22:02;91753.22;;;0.06;100.00
44481;BME280;30184;42.018;23.670;2024-01-25T06:24:32;91350.06;;;-2.61;100.00
44481;BME280;30184;42.018;23.670;2024-01-25T06:27:03;91775.53;;;0.21;100.00
44481;BME280;30184;42.018;23.670;2024-01-25T06:29:33;91595.53;;;-0.98;100.00
44481;BME280;30184;42.018;23.670;2024-01-25T06:32:05;91797.13;;;0.12;100.00
44481;BME280;30184;42.018;23.670;2024-01-25T06:34:40;91853.69;;;0.21;100.00
44481;BME280;30184;42.018;23.670;2024-01-25T06:37:10;91645.63;;;-0.31;100.00
44481;BME280;30184;42.018;23.670;2024-01-25T06:39:43;91739.69;;;0.18;100.00
44481;BME280;30184;42.018;23.670;2024-01-25T06:42:17;91821.78;;;0.55;100.00
44481;BME280;30184;42.018;23.670;2024-01-25T06:44:46;91753.75;;;0.45;100.00
44481;BME280;30184;42.018;23.670;2024-01-25T06:47:16;91653.31;;;0.00;100.00
44481;BME280;30184;42.018;23.670;2024-01-25T06:49:48;91780.84;;;0.77;100.00
44481;BME280;30184;42.018;23.670;2024-01-25T06:52:19;91836.50;;;0.71;100.00
44481;BME280;30184;42.018;23.670;2024-01-25T06:54:49;91698.91;;;0.51;100.00
44481;BME280;30184;42.018;23.670;2024-01-25T06:57:21;91586.34;;;-0.78;100.00
44481;BME280;30184;42.018;23.670;2024-01-25T06:59:55;91336.50;;;-1.55;100.00
44481;BME280;30184;42.018;23.670;2024-01-25T07:02:25;91613.22;;;0.26;100.00
44481;BME280;30184;42.018;23.670;2024-01-25T07:04:55;91763.94;;;0.99;99.51
44481;BME280;30184;42.018;23.670;2024-01-25T07:07:24;91658.31;;;0.35;99.14
44481;BME280;30184;42.018;23.670;2024-01-25T07:09:54;91319.78;;;-1.81;98.16
44481;BME280;30184;42.018;23.670;2024-01-25T07:12:25;91594.34;;;0.12;97.87
44481;BME280;30184;42.018;23.670;2024-01-25T07:14:55;91783.41;;;1.33;96.93
44481;BME280;30184;42.018;23.670;2024-01-25T07:17:24;91835.03;;;1.41;96.67
44481;BME280;30184;42.018;23.670;2024-01-25T07:19:54;91450.22;;;-0.32;96.13
44481;BME280;30184;42.018;23.670;2024-01-25T07:22:24;91693.00;;;1.46;95.92
44481;BME280;30184;42.018;23.670;2024-01-25T07:24:54;91683.91;;;1.54;95.56
44481;BME280;30184;42.018;23.670;2024-01-25T07:27:26;91482.09;;;-0.43;94.80
44481;BME280;30184;42.018;23.670;2024-01-25T07:29:56;91251.56;;;-1.00;94.67
44481;BME280;30184;42.018;23.670;2024-01-25T07:32:26;91204.78;;;-1.38;94.09
44481;BME280;30184;42.018;23.670;2024-01-25T07:34:56;91617.31;;;1.42;94.29
44481;BME280;30184;42.018;23.670;2024-01-25T07:37:26;91547.84;;;0.91;94.23
44481;BME280;30184;42.018;23.670;2024-01-25T07:39:56;91617.22;;;1.82;93.40
44481;BME280;30184;42.018;23.670;2024-01-25T07:42:28;91617.78;;;2.23;91.87
44481;BME280;30184;42.018;23.670;2024-01-25T07:44:57;91412.72;;;0.86;90.35
44481;BME280;30184;42.018;23.670;2024-01-25T07:47:27;91532.47;;;2.15;89.20
44481;BME280;30184;42.018;23.670;2024-01-25T07:49:57;91570.78;;;2.33;87.76
44481;BME280;30184;42.018;23.670;2024-01-25T07:52:28;91674.41;;;3.51;84.16
44481;BME280;30184;42.018;23.670;2024-01-25T07:54:57;91172.13;;;0.29;82.59
44481;BME280;30184;42.018;23.670;2024-01-25T07:57:30;91403.97;;;2.04;79.44
44481;BME280;30184;42.018;23.670;2024-01-25T08:00:00;91442.13;;;1.69;76.20
44481;BME280;30184;42.018;23.670;2024-01-25T08:02:31;91673.22;;;4.12;71.07
44481;BME280;30184;42.018;23.670;2024-01-25T08:05:01;91642.97;;;3.66;72.04
44481;BME280;30184;42.018;23.670;2024-01-25T08:07:31;91196.06;;;1.27;68.92
44481;BME280;30184;42.018;23.670;2024-01-25T08:10:03;91641.72;;;4.31;69.53
44481;BME280;30184;42.018;23.670;2024-01-25T08:12:34;91658.53;;;4.63;72.47
44481;BME280;30184;42.018;23.670;2024-01-25T08:15:10;91266.75;;;1.82;72.49
44481;BME280;30184;42.018;23.670;2024-01-25T08:17:40;91515.63;;;3.95;70.00
44481;BME280;30184;42.018;23.670;2024-01-25T08:20:11;91560.97;;;4.70;64.16
44481;BME280;30184;42.018;23.670;2024-01-25T08:22:41;91388.28;;;3.96;62.28
44481;BME280;30184;42.018;23.670;2024-01-25T08:25:11;91511.25;;;5.44;57.63
44481;BME280;30184;42.018;23.670;2024-01-25T08:27:43;91412.88;;;4.54;51.93
44481;BME280;30184;42.018;23.670;2024-01-25T08:30:16;91624.22;;;6.70;55.53
44481;BME280;30184;42.018;23.670;2024-01-25T08:32:46;91338.88;;;5.20;55.25
44481;BME280;30184;42.018;23.670;2024-01-25T08:35:18;91629.31;;;7.26;59.41
44481;BME280;30184;42.018;23.670;2024-01-25T08:37:58;91500.59;;;5.71;60.77
44481;BME280;30184;42.018;23.670;2024-01-25T08:40:30;91396.41;;;6.02;54.80
44481;BME280;30184;42.018;23.670;2024-01-25T08:43:01;91342.00;;;5.49;49.76
44481;BME280;30184;42.018;23.670;2024-01-25T08:45:32;91783.22;;;7.53;50.01
44481;BME280;30184;42.018;23.670;2024-01-25T08:48:02;91589.41;;;7.14;48.51
44481;BME280;30184;42.018;23.670;2024-01-25T08:50:33;91370.22;;;5.72;48.64
44481;BME280;30184;42.018;23.670;2024-01-25T08:53:04;91626.16;;;7.58;47.48
44481;BME280;30184;42.018;23.670;2024-01-25T08:55:35;91611.13;;;7.57;49.76
44481;BME280;30184;42.018;23.670;2024-01-25T08:58:06;91712.94;;;7.29;50.18
44481;BME280;30184;42.018;23.670;2024-01-25T09:00:36;91646.63;;;7.55;48.29
44481;BME280;30184;42.018;23.670;2024-01-25T09:03:06;91506.31;;;7.01;48.83
44481;BME280;30184;42.018;23.670;2024-01-25T09:05:45;91268.00;;;4.66;45.50
44481;BME280;30184;42.018;23.670;2024-01-25T09:08:15;91485.97;;;6.09;46.48
44481;BME280;30184;42.018;23.670;2024-01-25T09:10:45;91188.59;;;4.62;45.87
44481;BME280;30184;42.018;23.670;2024-01-25T09:13:16;91523.66;;;6.73;47.27
44481;BME280;30184;42.018;23.670;2024-01-25T09:15:46;91582.28;;;6.96;47.80
44481;BME280;30184;42.018;23.670;2024-01-25T09:18:15;91575.00;;;6.66;49.05
44481;BME280;30184;42.018;23.670;2024-01-25T09:20:45;91604.81;;;6.52;45.53
44481;BME280;30184;42.018;23.670;2024-01-25T09:23:16;91644.50;;;6.86;42.02
44481;BME280;30184;42.018;23.670;2024-01-25T09:25:46;91593.88;;;6.66;41.91
44481;BME280;30184;42.018;23.670;2024-01-25T09:28:17;91510.63;;;6.08;43.83
44481;BME280;30184;42.018;23.670;2024-01-25T09:30:48;91537.59;;;5.63;42.24
44481;BME280;30184;42.018;23.670;2024-01-25T09:33:17;91622.31;;;6.37;44.21
44481;BME280;30184;42.018;23.670;2024-01-25T09:35:47;91470.34;;;6.27;43.29
44481;BME280;30184;42.018;23.670;2024-01-25T09:38:17;91610.75;;;7.31;41.44
44481;BME280;30184;42.018;23.670;2024-01-25T09:40:47;91343.66;;;5.74;38.13
44481;BME280;30184;42.018;23.670;2024-01-25T09:43:19;91592.72;;;7.75;39.06
44481;BME280;30184;42.018;23.670;2024-01-25T09:45:53;91589.03;;;8.08;39.52
44481;BME280;30184;42.018;23.670;2024-01-25T09:48:25;91319.09;;;6.25;38.03
44481;BME280;30184;42.018;23.670;2024-01-25T09:50:55;91637.91;;;8.64;39.36
44481;BME280;30184;42.018;23.670;2024-01-25T09:53:26;91644.00;;;8.68;38.01
44481;BME280;30184;42.018;23.670;2024-01-25T09:56:00;91363.41;;;7.18;36.83
44481;BME280;30184;42.018;23.670;2024-01-25T09:58:37;91614.59;;;8.90;35.92
44481;BME280;30184;42.018;23.670;2024-01-25T10:01:09;91479.72;;;7.70;37.67
44481;BME280;30184;42.018;23.670;2024-01-25T10:03:42;91635.09;;;9.27;36.74
44481;BME280;30184;42.018;23.670;2024-01-25T10:06:14;91595.53;;;9.33;36.38
44481;BME280;30184;42.018;23.670;2024-01-25T10:08:45;91570.56;;;9.25;36.88
44481;BME280;30184;42.018;23.670;2024-01-25T10:11:16;91485.19;;;8.69;37.20
44481;BME280;30184;42.018;23.670;2024-01-25T10:13:48;91347.72;;;6.89;36.66
44481;BME280;30184;42.018;23.670;2024-01-25T10:16:18;91593.13;;;8.99;37.93
44481;BME280;30184;42.018;23.670;2024-01-25T10:18:49;91487.88;;;8.29;37.88
44481;BME280;30184;42.018;23.670;2024-01-25T10:21:20;91565.34;;;8.59;38.64
44481;BME280;30184;42.018;23.670;2024-01-25T10:23:50;91637.69;;;9.14;38.48
44481;BME280;30184;42.018;23.670;2024-01-25T10:26:22;91666.97;;;9.19;37.13
44481;BME280;30184;42.018;23.670;2024-01-25T10:28:54;91287.41;;;7.23;37.57
44481;BME280;30184;42.018;23.670;2024-01-25T10:31:24;91255.06;;;7.19;37.23
44481;BME280;30184;42.018;23.670;2024-01-25T10:33:54;91300.81;;;7.66;38.03
44481;BME280;30184;42.018;23.670;2024-01-25T10:36:26;91541.94;;;9.08;38.18
44481;BME280;30184;42.018;23.670;2024-01-25T10:38:57;91548.16;;;9.05;38.96
44481;BME280;30184;42.018;23.670;2024-01-25T10:41:31;91549.28;;;9.08;37.87
44481;BME280;30184;42.018;23.670;2024-01-25T10:44:03;91308.63;;;7.21;39.25
44481;BME280;30184;42.018;23.670;2024-01-25T10:46:43;91384.78;;;8.11;38.01
44481;BME280;30184;42.018;23.670;2024-01-25T10:49:18;91359.50;;;7.62;38.57
44481;BME280;30184;42.018;23.670;2024-01-25T10:51:50;91457.63;;;8.74;37.91
44481;BME280;30184;42.018;23.670;2024-01-25T10:54:24;91419.53;;;8.48;39.28
44481;BME280;30184;42.018;23.670;2024-01-25T10:56:58;91203.88;;;6.76;37.39
44481;BME280;30184;42.018;23.670;2024-01-25T10:59:30;91092.25;;;6.90;38.54
44481;BME280;30184;42.018;23.670;2024-01-25T11:02:01;91377.47;;;8.64;37.97
44481;BME280;30184;42.018;23.670;2024-01-25T11:04:31;91518.94;;;9.65;37.34
44481;BME280;30184;42.018;23.670;2024-01-25T11:07:07;91487.28;;;9.29;37.50
44481;BME280;30184;42.018;23.670;2024-01-25T11:09:40;91235.91;;;7.14;37.08
44481;BME280;30184;42.018;23.670;2024-01-25T11:12:18;91306.44;;;6.92;36.76
44481;BME280;30184;42.018;23.670;2024-01-25T11:15:06;91549.97;;;9.28;37.65
44481;BME280;30184;42.018;23.670;2024-01-25T11:17:40;91465.50;;;8.84;36.53
44481;BME280;30184;42.018;23.670;2024-01-25T11:20:13;91442.47;;;8.60;37.82
44481;BME280;30184;42.018;23.670;2024-01-25T11:22:47;91224.78;;;7.11;36.83
44481;BME280;30184;42.018;23.670;2024-01-25T11:25:20;91127.41;;;6.66;38.06
44481;BME280;30184;42.018;23.670;2024-01-25T11:27:51;91528.94;;;9.35;38.08
44481;BME280;30184;42.018;23.670;2024-01-25T11:30:22;91155.22;;;6.40;37.56
44481;BME280;30184;42.018;23.670;2024-01-25T11:32:52;91359.16;;;7.20;37.04
44481;BME280;30184;42.018;23.670;2024-01-25T11:35:22;91431.16;;;7.23;38.15
44481;BME280;30184;42.018;23.670;2024-01-25T11:37:57;91114.88;;;5.70;37.49
44481;BME280;30184;42.018;23.670;2024-01-25T11:40:28;91501.88;;;8.64;39.43
44481;BME280;30184;42.018;23.670;2024-01-25T11:43:01;91447.41;;;8.45;38.70
44481;BME280;30184;42.018;23.670;2024-01-25T11:45:33;91529.66;;;8.48;37.56
44481;BME280;30184;42.018;23.670;2024-01-25T11:48:18;91500.91;;;8.74;38.81
44481;BME280;30184;42.018;23.670;2024-01-25T11:50:59;91329.75;;;6.83;39.38
44481;BME280;30184;42.018;23.670;2024-01-25T11:53:33;91539.28;;;8.69;39.65
44481;BME280;30184;42.018;23.670;2024-01-25T11:56:06;91260.63;;;6.69;39.31
44481;BME280;30184;42.018;23.670;2024-01-25T11:58:53;91624.47;;;8.60;40.90
44481;BME280;30184;42.018;23.670;2024-01-25T12:01:34;91351.81;;;6.51;39.75
44481;BME280;30184;42.018;23.670;2024-01-25T12:04:15;91546.84;;;8.57;38.93
44481;BME280;30184;42.018;23.670;2024-01-25T12:06:46;91466.03;;;6.87;40.01
44481;BME280;30184;42.018;23.670;2024-01-25T12:09:17;91451.19;;;7.49;40.59
44481;BME280;30184;42.018;23.670;2024-01-25T12:11:52;91490.78;;;7.99;40.74
44481;BME280;30184;42.018;23.670;2024-01-25T12:14:23;91545.03;;;8.31;40.79
44481;BME280;30184;42.018;23.670;2024-01-25T12:16:56;91490.16;;;7.91;41.67
44481;BME280;30184;42.018;23.670;2024-01-25T12:19:28;91320.63;;;6.26;41.92
44481;BME280;30184;42.018;23.670;2024-01-25T12:22:06;91563.16;;;7.64;40.75
44481;BME280;30184;42.018;23.670;2024-01-25T12:24:36;91575.94;;;8.07;41.22
44481;BME280;30184;42.018;23.670;2024-01-25T12:27:09;91404.13;;;6.80;41.38
44481;BME280;30184;42.018;23.670;2024-01-25T12:29:47;91346.44;;;6.74;41.65
44481;BME280;30184;42.018;23.670;2024-01-25T12:32:35;91217.84;;;5.20;40.62
44481;BME280;30184;42.018;23.670;2024-01-25T12:35:08;91424.50;;;6.85;41.24
44481;BME280;30184;42.018;23.670;2024-01-25T12:37:47;91676.78;;;8.04;42.31
44481;BME280;30184;42.018;23.670;2024-01-25T12:40:22;91652.31;;;7.34;40.57
44481;BME280;30184;42.018;23.670;2024-01-25T12:42:55;91676.09;;;7.73;42.14
44481;BME280;30184;42.018;23.670;2024-01-25T12:45:45;91199.63;;;5.01;42.68
44481;BME280;30184;42.018;23.670;2024-01-25T12:48:17;91286.50;;;5.32;43.48
44481;BME280;30184;42.018;23.670;2024-01-25T12:50:48;91653.00;;;7.41;44.04
44481;BME280;30184;42.018;23.670;2024-01-25T12:53:18;91633.09;;;7.32;45.12
44481;BME280;30184;42.018;23.670;2024-01-25T12:55:50;91688.59;;;7.33;44.82
44481;BME280;30184;42.018;23.670;2024-01-25T12:58:20;91759.75;;;7.16;45.24
44481;BME280;30184;42.018;23.670;2024-01-25T13:00:53;91653.69;;;6.54;46.17
44481;BME280;30184;42.018;23.670;2024-01-25T13:03:25;91372.03;;;4.21;45.81
44481;BME280;30184;42.018;23.670;2024-01-25T13:06:18;91345.47;;;4.30;47.28
44481;BME280;30184;42.018;23.670;2024-01-25T13:08:47;91543.53;;;6.56;47.52
44481;BME280;30184;42.018;23.670;2024-01-25T13:11:19;91603.00;;;6.76;48.44
44481;BME280;30184;42.018;23.670;2024-01-25T13:13:50;91526.44;;;6.36;47.96
44481;BME280;30184;42.018;23.670;2024-01-25T13:16:20;91292.19;;;4.66;47.12